Time;durP1;ratioP1;P1;durP2;ratioP2;P2;SDS_P1;SDS_P2;PMS_P1;PMS_P2;Temp;Humidity;BMP_temperature;BMP_pressure;BME280_temperature;BME280_humidity;BME280_pressure;Samples;Min_cycle;Max_cycle;Signal;HPM_P1;HPM_P2
2021/12/11 16:53:07;;;;;;;19.40;10.52;;;3.50;90.70;;;;;;5103389;27;20606;-71
2021/12/11 16:55:34;;;;;;;18.45;9.75;;;3.60;90.60;;;;;;5096580;28;20273;-71
2021/12/11 16:58:00;;;;;;;20.45;10.85;;;3.70;90.30;;;;;;5089835;28;20202;-74
2021/12/11 17:00:28;;;;;;;19.50;10.80;;;3.80;89.90;;;;;;5098462;28;20209;-72
2021/12/11 17:02:55;;;;;;;18.30;9.40;;;3.90;89.00;;;;;;5088326;28;20427;-71
2021/12/11 17:05:22;;;;;;;14.40;9.00;;;4.10;88.00;;;;;;5092355;28;20820;-72
2021/12/11 17:07:48;;;;;;;18.53;9.93;;;4.10;87.00;;;;;;5086896;28;20476;-74
2021/12/11 17:10:38;;;;;;;18.23;10.20;;;4.20;86.80;;;;;;5103819;28;20461;-72
2021/12/11 17:13:05;;;;;;;19.38;10.18;;;4.30;86.30;;;;;;5091770;28;20803;-73
2021/12/11 17:15:33;;;;;;;18.03;9.53;;;4.40;86.00;;;;;;5101854;28;20556;-72
2021/12/11 17:17:59;;;;;;;17.63;10.27;;;4.40;85.60;;;;;;5091939;28;20540;-73
2021/12/11 17:20:27;;;;;;;17.83;10.60;;;4.40;85.70;;;;;;5105402;28;20420;-71
2021/12/11 17:22:57;;;;;;;24.30;11.60;;;4.40;85.90;;;;;;5105311;28;20424;-73
2021/12/11 17:25:29;;;;;;;20.60;11.03;;;4.50;85.90;;;;;;5092958;28;20504;-73
2021/12/11 17:27:59;;;;;;;21.57;10.57;;;4.50;86.00;;;;;;5093198;28;20448;-71
2021/12/11 17:30:26;;;;;;;20.43;11.20;;;4.50;85.90;;;;;;5089805;28;20437;-72
2021/12/11 17:32:52;;;;;;;20.97;10.60;;;4.50;85.60;;;;;;5095818;28;20472;-73
2021/12/11 17:35:19;;;;;;;21.33;11.97;;;4.60;85.30;;;;;;5091532;28;20433;-72
2021/12/11 17:37:45;;;;;;;21.70;11.40;;;4.50;84.70;;;;;;5088244;28;20808;-73
2021/12/11 17:40:14;;;;;;;22.60;12.10;;;4.50;85.20;;;;;;5098763;28;20424;-73
2021/12/11 17:42:40;;;;;;;18.10;11.07;;;4.50;85.20;;;;;;5089984;28;20187;-71
2021/12/11 17:45:09;;;;;;;21.53;11.37;;;4.50;85.30;;;;;;5083608;28;20422;-72
2021/12/11 17:47:39;;;;;;;19.40;11.70;;;4.50;85.90;;;;;;5095875;28;20963;-72
2021/12/11 17:50:08;;;;;;;31.23;12.33;;;4.40;86.00;;;;;;5108822;28;20435;-72
2021/12/11 17:52:36;;;;;;;18.02;11.65;;;4.40;86.60;;;;;;5108439;28;20601;-71
2021/12/11 17:55:06;;;;;;;25.90;12.30;;;4.40;87.00;;;;;;5102210;28;20718;-72
2021/12/11 17:57:33;;;;;;;20.20;10.27;;;4.40;87.30;;;;;;5106741;28;20442;-72
2021/12/11 17:59:59;;;;;;;24.97;12.43;;;4.30;87.40;;;;;;5107866;28;20447;-71
2021/12/11 18:02:27;;;;;;;29.23;13.73;;;4.30;88.00;;;;;;5104366;28;20840;-73
2021/12/11 18:05:08;;;;;;;27.13;12.50;;;4.30;88.10;;;;;;5094415;28;20500;-70
2021/12/11 18:07:44;;;;;;;24.63;12.20;;;4.30;88.40;;;;;;5086392;28;20454;-71
2021/12/11 18:10:15;;;;;;;22.70;11.00;;;4.30;88.70;;;;;;5085350;28;20442;-72
2021/12/11 18:12:46;;;;;;;23.60;12.23;;;4.40;88.60;;;;;;5092130;28;20522;-72
2021/12/11 18:15:16;;;;;;;24.70;12.20;;;4.30;89.00;;;;;;5091936;28;20421;-72
2021/12/11 18:17:47;;;;;;;22.45;12.40;;;4.30;89.00;;;;;;5087188;28;21288;-73
2021/12/11 18:20:21;;;;;;;28.23;12.50;;;4.40;89.20;;;;;;5092989;28;20258;-72
2021/12/11 18:22:48;;;;;;;24.20;11.90;;;4.30;89.20;;;;;;5092089;28;20425;-72
2021/12/11 18:25:19;;;;;;;25.50;12.48;;;4.20;89.50;;;;;;5091937;28;20440;-73
2021/12/11 18:27:45;;;;;;;20.83;11.70;;;4.20;89.70;;;;;;5084641;28;20558;-71
2021/12/11 18:30:16;;;;;;;20.95;11.70;;;4.30;89.90;;;;;;5091674;28;20425;-73
2021/12/11 18:32:43;;;;;;;26.30;11.77;;;4.30;89.60;;;;;;5090294;28;20335;-72
2021/12/11 18:35:16;;;;;;;21.63;11.87;;;4.30;89.60;;;;;;5090830;28;20503;-72
2021/12/11 18:37:42;;;;;;;20.88;11.43;;;4.30;89.70;;;;;;5089911;28;20445;-70
2021/12/11 18:40:22;;;;;;;26.20;12.48;;;4.30;90.00;;;;;;5088207;28;20186;-73
2021/12/11 18:42:49;;;;;;;24.43;12.67;;;4.40;89.70;;;;;;5087969;28;20184;-73
2021/12/11 18:45:21;;;;;;;29.10;12.73;;;4.30;89.70;;;;;;5075475;28;20441;-72
2021/12/11 18:47:47;;;;;;;21.93;12.20;;;4.40;89.90;;;;;;5090062;28;20969;-73
2021/12/11 18:50:18;;;;;;;20.67;12.17;;;4.50;89.70;;;;;;5091086;28;20421;-74
2021/12/11 18:52:45;;;;;;;25.90;12.90;;;4.40;89.50;;;;;;5082298;28;20638;-71
2021/12/11 18:55:16;;;;;;;21.63;12.23;;;4.50;89.60;;;;;;5089876;28;20429;-71
2021/12/11 18:57:46;;;;;;;23.43;11.83;;;4.40;89.30;;;;;;5090133;28;20425;-72
2021/12/11 19:00:32;;;;;;;24.70;12.10;;;4.40;89.70;;;;;;5089429;28;20425;-70
2021/12/11 19:02:59;;;;;;;21.17;12.03;;;4.50;89.90;;;;;;5085420;28;20433;-70
2021/12/11 19:05:30;;;;;;;20.37;10.93;;;4.50;89.60;;;;;;5092103;28;20503;-71
2021/12/11 19:07:56;;;;;;;19.97;10.70;;;4.50;89.60;;;;;;5088426;28;20425;-70
2021/12/11 19:10:23;;;;;;;22.23;10.57;;;4.40;89.70;;;;;;5084974;28;20417;-73
2021/12/11 19:12:50;;;;;;;19.87;10.97;;;4.50;90.00;;;;;;5090500;28;20500;-73
2021/12/11 19:15:37;;;;;;;23.50;11.53;;;4.50;89.90;;;;;;5085321;28;20424;-69
2021/12/11 19:18:05;;;;;;;22.93;11.37;;;4.50;89.90;;;;;;5093823;28;20479;-73
2021/12/11 19:20:46;;;;;;;22.20;12.00;;;4.60;89.90;;;;;;5092229;28;20459;-72
2021/12/11 19:23:13;;;;;;;21.53;11.80;;;4.60;89.90;;;;;;5086762;28;20433;-73
2021/12/11 19:25:40;;;;;;;21.27;11.77;;;4.60;89.60;;;;;;5082593;28;20503;-71
2021/12/11 19:28:12;;;;;;;25.47;12.43;;;4.60;89.70;;;;;;5089345;28;20502;-73
2021/12/11 19:30:46;;;;;;;22.03;11.90;;;4.60;89.90;;;;;;5089440;28;20464;-71
2021/12/11 19:33:17;;;;;;;25.90;13.37;;;4.70;90.00;;;;;;5083070;28;20544;-74
2021/12/11 19:35:46;;;;;;;20.83;10.90;;;4.70;89.90;;;;;;5081911;28;20503;-72
2021/12/11 19:38:12;;;;;;;25.27;11.63;;;4.70;89.70;;;;;;5072936;28;20870;-72
2021/12/11 19:40:42;;;;;;;21.27;11.80;;;4.70;89.60;;;;;;5088246;28;20425;-71
2021/12/11 19:43:10;;;;;;;16.93;11.10;;;4.60;89.70;;;;;;5093240;28;20225;-71
2021/12/11 19:45:38;;;;;;;19.03;10.67;;;4.50;89.90;;;;;;5087111;28;20421;-71
2021/12/11 19:48:05;;;;;;;20.43;10.70;;;4.50;90.20;;;;;;5075825;28;20447;-71
2021/12/11 19:50:32;;;;;;;20.00;11.67;;;4.60;90.10;;;;;;5091442;28;20420;-71
2021/12/11 19:52:57;;;;;;;18.63;10.10;;;4.50;90.00;;;;;;5093001;28;20465;-71
2021/12/11 19:55:25;;;;;;;18.23;11.40;;;4.60;90.20;;;;;;5086440;28;20425;-71
2021/12/11 19:57:53;;;;;;;22.43;10.40;;;4.60;90.00;;;;;;5090490;28;20223;-70
2021/12/11 20:00:27;;;;;;;15.17;9.73;;;4.60;89.70;;;;;;5090289;28;20837;-70
2021/12/11 20:02:57;;;;;;;20.03;9.90;;;4.60;89.70;;;;;;5090812;28;20451;-72
2021/12/11 20:05:50;;;;;;;17.97;10.63;;;4.60;89.70;;;;;;5080719;28;20958;-71
2021/12/11 20:08:21;;;;;;;15.30;9.67;;;4.60;90.00;;;;;;5097653;28;20488;-70
2021/12/11 20:10:51;;;;;;;18.50;9.53;;;4.60;90.10;;;;;;5088454;28;20458;-71
2021/12/11 20:13:28;;;;;;;15.97;9.10;;;4.50;90.20;;;;;;5088567;28;20429;-71
2021/12/11 20:16:00;;;;;;;39.03;17.23;;;4.60;90.40;;;;;;5089201;28;20416;-70
2021/12/11 20:18:29;;;;;;;22.47;11.30;;;4.60;90.20;;;;;;5081164;28;20441;-71
2021/12/11 20:20:58;;;;;;;16.40;9.60;;;4.60;90.10;;;;;;5082295;28;20812;-71
2021/12/11 20:23:24;;;;;;;17.97;10.70;;;4.60;90.20;;;;;;5085913;28;20528;-73
2021/12/11 20:25:52;;;;;;;19.30;10.37;;;4.60;90.40;;;;;;5072203;28;20513;-71
2021/12/11 20:28:20;;;;;;;16.27;9.20;;;4.70;90.20;;;;;;5081419;28;20453;-71
2021/12/11 20:31:14;;;;;;;17.10;9.10;;;4.70;90.20;;;;;;5086478;28;20478;-71
2021/12/11 20:33:40;;;;;;;18.30;10.37;;;4.60;90.20;;;;;;5086115;28;20441;-71
2021/12/11 20:36:08;;;;;;;16.37;10.03;;;4.60;90.00;;;;;;5087220;28;20444;-71
2021/12/11 20:38:33;;;;;;;17.47;9.93;;;4.70;90.00;;;;;;5078946;28;20457;-72
2021/12/11 20:41:05;;;;;;;16.57;9.70;;;4.70;90.00;;;;;;5087329;28;20429;-71
2021/12/11 20:43:32;;;;;;;15.97;9.60;;;4.70;90.00;;;;;;5083767;28;20737;-72
2021/12/11 20:45:59;;;;;;;21.20;10.30;;;4.70;90.00;;;;;;5093743;28;20433;-71
2021/12/11 20:48:27;;;;;;;21.67;10.50;;;4.70;90.00;;;;;;5085361;28;21282;-71
2021/12/11 20:51:01;;;;;;;23.30;13.57;;;4.70;90.00;;;;;;5089138;28;20425;-72
2021/12/11 20:53:29;;;;;;;19.93;10.20;;;4.70;90.00;;;;;;5091137;28;20439;-70
2021/12/11 20:55:55;;;;;;;18.30;9.70;;;4.60;89.90;;;;;;5074898;28;20430;-71
2021/12/11 20:58:22;;;;;;;16.00;9.80;;;4.50;90.10;;;;;;5079787;28;20453;-70
2021/12/11 21:01:00;;;;;;;17.20;9.73;;;4.60;90.10;;;;;;5085107;28;20517;-72
2021/12/11 21:03:31;;;;;;;16.97;8.80;;;4.60;89.90;;;;;;5087423;28;20425;-73
2021/12/11 21:06:02;;;;;;;16.50;8.10;;;4.60;89.90;;;;;;5082331;28;20417;-72
2021/12/11 21:08:28;;;;;;;14.37;7.73;;;4.60;89.90;;;;;;5091053;28;20811;-72
2021/12/11 21:11:06;;;;;;;24.17;8.73;;;4.60;90.10;;;;;;5089076;28;20425;-73
2021/12/11 21:13:37;;;;;;;20.03;10.03;;;4.60;89.90;;;;;;5079277;28;20486;-71
2021/12/11 21:16:32;;;;;;;12.30;8.33;;;4.70;89.70;;;;;;5085119;28;20422;-73
2021/12/11 21:19:04;;;;;;;17.90;10.13;;;4.70;89.60;;;;;;5080904;28;20477;-71
2021/12/11 21:21:37;;;;;;;25.43;10.23;;;4.70;89.30;;;;;;5086638;28;20769;-71
2021/12/11 21:24:29;;;;;;;18.10;8.77;;;4.60;89.30;;;;;;5082757;28;20421;-72
2021/12/11 21:27:00;;;;;;;19.33;8.83;;;4.50;89.30;;;;;;5079753;28;20847;-72
2021/12/11 21:29:28;;;;;;;17.70;9.43;;;4.50;89.50;;;;;;5085283;28;20501;-72
2021/12/11 21:32:02;;;;;;;16.80;9.30;;;4.40;89.90;;;;;;5083886;28;20463;-71
2021/12/11 21:34:29;;;;;;;19.63;8.93;;;4.40;90.20;;;;;;5087757;28;20422;-73
2021/12/11 21:37:04;;;;;;;16.70;8.90;;;4.50;90.50;;;;;;5082856;28;20421;-70
2021/12/11 21:39:55;;;;;;;19.00;9.77;;;4.50;90.40;;;;;;5087133;28;20436;-70
2021/12/11 21:42:32;;;;;;;19.87;9.97;;;4.40;90.40;;;;;;5087764;28;20437;-72
2021/12/11 21:45:04;;;;;;;22.33;10.00;;;4.40;90.50;;;;;;5088766;28;20424;-71
2021/12/11 21:47:30;;;;;;;18.03;10.33;;;4.40;90.60;;;;;;5090932;28;20448;-72
2021/12/11 21:50:00;;;;;;;17.80;10.47;;;4.40;90.70;;;;;;5083977;28;20506;-72
2021/12/11 21:52:31;;;;;;;21.73;10.67;;;4.50;90.60;;;;;;5090499;28;20480;-71
2021/12/11 21:55:07;;;;;;;20.27;10.83;;;4.50;90.70;;;;;;5084945;28;20421;-70
2021/12/11 21:57:33;;;;;;;18.40;9.37;;;4.50;91.00;;;;;;5090772;28;20420;-73
2021/12/11 22:00:13;;;;;;;15.83;10.53;;;4.50;91.10;;;;;;5089978;28;20560;-72
2021/12/11 22:02:48;;;;;;;16.23;9.57;;;4.50;91.20;;;;;;5081472;28;20214;-72
2021/12/11 22:05:31;;;;;;;18.20;9.30;;;4.60;91.20;;;;;;5087806;28;20420;-69
2021/12/11 22:07:57;;;;;;;18.08;11.07;;;4.50;91.00;;;;;;5084411;28;20447;-72
2021/12/11 22:10:27;;;;;;;18.17;11.13;;;4.50;91.00;;;;;;5090774;28;20195;-72
2021/12/11 22:12:55;;;;;;;21.23;10.90;;;4.50;91.10;;;;;;5088555;28;20551;-71
2021/12/11 22:15:43;;;;;;;23.40;9.83;;;4.50;91.00;;;;;;5085696;28;21270;-71
2021/12/11 22:18:10;;;;;;;15.43;8.93;;;4.40;91.10;;;;;;5086830;28;20834;-70
2021/12/11 22:20:41;;;;;;;14.87;8.23;;;4.40;91.30;;;;;;5089937;28;20591;-70
2021/12/11 22:23:07;;;;;;;17.70;11.23;;;4.40;91.40;;;;;;5088869;28;20524;-72
2021/12/11 22:25:40;;;;;;;16.98;9.88;;;4.50;91.30;;;;;;5089668;28;20500;-71
2021/12/11 22:28:06;;;;;;;16.13;9.63;;;4.40;91.20;;;;;;5083558;28;20210;-71
2021/12/11 22:30:38;;;;;;;15.60;9.70;;;4.50;91.20;;;;;;5082487;28;20190;-71
2021/12/11 22:33:05;;;;;;;19.70;10.80;;;4.50;91.30;;;;;;5089866;28;20465;-71
2021/12/11 22:35:40;;;;;;;17.93;9.33;;;4.50;91.30;;;;;;5082910;28;20426;-72
2021/12/11 22:38:07;;;;;;;19.73;9.90;;;4.50;91.20;;;;;;5082629;28;20448;-72
2021/12/11 22:40:39;;;;;;;19.33;10.13;;;4.50;91.00;;;;;;5091754;28;20453;-73
2021/12/11 22:43:10;;;;;;;18.10;8.73;;;4.50;90.80;;;;;;5096328;28;20490;-72
2021/12/11 22:45:39;;;;;;;13.63;8.53;;;4.50;90.80;;;;;;5093220;28;20527;-72
2021/12/11 22:48:05;;;;;;;14.03;8.20;;;4.50;90.60;;;;;;5089862;28;20437;-72
2021/12/11 22:50:36;;;;;;;15.80;8.07;;;4.50;90.70;;;;;;5078145;28;20477;-71
2021/12/11 22:53:08;;;;;;;13.00;7.60;;;4.50;90.70;;;;;;5085691;28;20485;-73
2021/12/11 22:55:41;;;;;;;15.47;8.10;;;4.50;90.80;;;;;;5089408;28;20417;-74
2021/12/11 22:58:11;;;;;;;15.53;8.60;;;4.50;90.70;;;;;;5086129;28;20442;-72
2021/12/11 23:01:04;;;;;;;14.20;9.07;;;4.50;90.60;;;;;;5077648;28;20428;-71
2021/12/11 23:03:47;;;;;;;14.77;8.20;;;4.60;90.70;;;;;;5092641;28;20425;-72
2021/12/11 23:06:14;;;;;;;13.07;7.40;;;4.70;90.40;;;;;;5093040;28;20424;-72
2021/12/11 23:08:42;;;;;;;12.90;6.90;;;4.70;89.70;;;;;;5083635;28;20468;-72
2021/12/11 23:11:15;;;;;;;9.40;6.03;;;4.70;89.30;;;;;;5076414;28;20928;-73
2021/12/11 23:14:00;;;;;;;11.70;6.47;;;4.70;88.90;;;;;;5080098;28;20417;-71
2021/12/11 23:16:33;;;;;;;10.43;6.45;;;4.70;88.60;;;;;;5083656;28;20413;-72
2021/12/11 23:19:18;;;;;;;10.10;6.43;;;4.70;88.40;;;;;;5074608;28;20565;-73
2021/12/11 23:21:58;;;;;;;12.23;6.40;;;4.60;88.40;;;;;;5086903;28;20286;-72
2021/12/11 23:24:50;;;;;;;8.60;5.63;;;4.60;88.60;;;;;;5078289;28;20302;-72
2021/12/11 23:27:18;;;;;;;11.17;5.63;;;4.60;88.60;;;;;;5076268;28;20442;-73
2021/12/11 23:30:07;;;;;;;10.20;5.40;;;4.60;88.70;;;;;;5075217;28;20437;-72
2021/12/11 23:32:37;;;;;;;12.40;6.97;;;4.70;88.70;;;;;;5089270;28;20552;-74
2021/12/11 23:35:09;;;;;;;9.27;6.30;;;4.70;88.60;;;;;;5088241;28;20421;-72
2021/12/11 23:37:40;;;;;;;13.43;8.15;;;4.70;88.90;;;;;;5089569;28;20508;-73
2021/12/11 23:40:16;;;;;;;11.27;6.60;;;4.70;89.00;;;;;;5083550;28;20267;-72
2021/12/11 23:42:49;;;;;;;10.17;6.57;;;4.60;89.30;;;;;;5073936;28;20486;-72
2021/12/11 23:45:23;;;;;;;12.80;7.67;;;4.60;89.70;;;;;;5087247;28;20421;-72
2021/12/11 23:47:54;;;;;;;17.35;7.15;;;4.60;89.90;;;;;;5086628;28;20413;-73
2021/12/11 23:50:36;;;;;;;13.07;6.37;;;4.50;90.00;;;;;;5084256;28;20191;-71
2021/12/11 23:53:03;;;;;;;14.00;7.43;;;4.50;90.40;;;;;;5074870;28;20485;-72
2021/12/11 23:55:36;;;;;;;13.00;6.27;;;4.50;90.40;;;;;;5074097;28;20425;-72
2021/12/11 23:58:05;;;;;;;12.30;6.63;;;4.50;90.10;;;;;;5081859;28;20518;-71
